Time;durP1;ratioP1;P1;durP2;ratioP2;P2;SDS_P1;SDS_P2;PMS_P1;PMS_P2;Temp;Humidity;BMP_temperature;BMP_pressure;BME280_temperature;BME280_humidity;BME280_pressure;Samples;Min_cycle;Max_cycle;Signal;HPM_P1;HPM_P2
2021/12/08 00:01:15;;;;;;;4.67;4.28;;;;;;;0.11;88.80;99109.63;1706652;81;21623;-59
2021/12/08 00:03:42;;;;;;;4.95;4.47;;;;;;;0.11;88.82;99104.91;1705905;81;21462;-59
2021/12/08 00:06:09;;;;;;;5.03;4.62;;;;;;;0.09;88.99;99105.36;1714048;80;21571;-59
2021/12/08 00:08:36;;;;;;;5.67;5.08;;;;;;;0.10;88.49;99101.91;1716334;81;21513;-59
2021/12/08 00:13:50;;;;;;;6.45;4.92;;;;;;;0.15;88.20;99113.93;1691415;82;21703;-60
2021/12/08 00:16:17;;;;;;;6.55;5.37;;;;;;;0.12;88.35;99113.09;1702283;81;21443;-59
2021/12/08 00:18:47;;;;;;;8.93;5.43;;;;;;;0.06;88.42;99118.30;1689647;81;21584;-59
2021/12/08 00:21:13;;;;;;;5.55;4.92;;;;;;;0.00;88.50;99106.31;1711840;81;21716;-60
2021/12/08 00:23:40;;;;;;;5.50;5.05;;;;;;;-0.04;88.45;99109.36;1690159;81;21820;-59
2021/12/08 00:26:07;;;;;;;6.20;5.35;;;;;;;0.06;88.52;99113.12;1699007;82;21628;-60
2021/12/08 00:28:35;;;;;;;5.87;5.28;;;;;;;0.07;88.71;99110.98;1709737;81;26764;-59
2021/12/08 00:31:04;;;;;;;5.67;5.17;;;;;;;0.00;88.73;99121.83;1706259;81;21549;-60
2021/12/08 00:33:31;;;;;;;5.72;5.17;;;;;;;-0.01;88.61;99118.36;1696335;82;21610;-60
2021/12/08 00:35:59;;;;;;;5.53;5.05;;;;;;;0.00;88.61;99115.36;1717916;80;21620;-58
2021/12/08 00:38:27;;;;;;;6.03;5.42;;;;;;;0.11;88.45;99112.22;1712641;80;21596;-59
2021/12/08 00:42:28;;;;;;;5.85;5.28;;;;;;;0.05;88.37;99113.57;1792782;78;23238;-61
2021/12/08 00:44:58;;;;;;;6.37;5.70;;;;;;;-0.04;88.43;99108.06;1770076;80;21432;-60
2021/12/08 00:47:24;;;;;;;5.80;5.20;;;;;;;-0.02;88.09;99114.08;1777492;80;21802;-60
2021/12/08 00:49:51;;;;;;;6.73;6.17;;;;;;;0.02;88.03;99123.08;1776193;79;21481;-61
2021/12/08 00:52:18;;;;;;;6.27;5.77;;;;;;;-0.02;87.96;99114.48;1767710;79;21656;-60
2021/12/08 00:54:45;;;;;;;6.97;6.28;;;;;;;-0.06;87.98;99119.27;1767446;80;21462;-61
2021/12/08 00:57:12;;;;;;;7.45;6.70;;;;;;;-0.18;87.92;99118.09;1770272;79;20989;-59
2021/12/08 00:59:39;;;;;;;6.70;5.90;;;;;;;-0.22;88.08;99118.55;1768704;80;22162;-58
2021/12/08 01:02:06;;;;;;;7.50;6.77;;;;;;;-0.16;88.31;99110.73;1767679;80;21525;-59
2021/12/08 01:04:33;;;;;;;6.72;6.12;;;;;;;-0.08;88.22;99106.80;1762169;79;21529;-58
2021/12/08 01:07:01;;;;;;;6.75;6.15;;;;;;;-0.17;88.23;99109.04;1773346;80;21610;-59
2021/12/08 01:09:29;;;;;;;6.37;5.78;;;;;;;-0.22;88.51;99111.64;1772308;79;21446;-59
2021/12/08 01:11:57;;;;;;;5.87;5.22;;;;;;;-0.15;88.41;99104.72;1754594;80;22156;-59
2021/12/08 01:14:25;;;;;;;6.87;6.22;;;;;;;-0.09;88.44;99098.64;1768963;79;21422;-60
2021/12/08 01:16:52;;;;;;;8.23;7.15;;;;;;;-0.01;88.09;99105.44;1770203;79;21466;-60
2021/12/08 01:19:19;;;;;;;6.80;6.17;;;;;;;-0.11;87.92;99103.81;1756834;79;21458;-60
2021/12/08 01:21:46;;;;;;;6.65;6.05;;;;;;;-0.18;88.25;99101.30;1760273;79;21718;-59
2021/12/08 01:24:13;;;;;;;6.73;6.03;;;;;;;-0.18;88.11;99098.71;1760050;79;21823;-60
2021/12/08 01:26:41;;;;;;;7.20;6.50;;;;;;;-0.08;89.01;99097.75;1767583;79;21676;-60
2021/12/08 01:29:27;;;;;;;8.45;7.25;;;;;;;-0.05;88.32;99099.03;1659930;85;21542;-60
2021/12/08 01:31:54;;;;;;;7.35;6.47;;;;;;;-0.14;88.29;99096.52;1630366;86;21564;-60
2021/12/08 01:34:22;;;;;;;7.55;6.85;;;;;;;-0.18;88.14;99099.55;1650920;85;21483;-60
2021/12/08 01:36:49;;;;;;;7.12;6.42;;;;;;;-0.21;88.60;99096.58;1656759;85;22133;-60
2021/12/08 01:39:16;;;;;;;6.15;5.55;;;;;;;-0.12;88.38;99099.94;1658770;85;21502;-60
2021/12/08 01:41:44;;;;;;;7.78;6.97;;;;;;;-0.21;88.46;99104.73;1650566;85;21464;-60
2021/12/08 01:46:57;;;;;;;7.65;6.95;;;;;;;-0.31;88.86;99103.11;1657290;85;21075;-60
2021/12/08 01:49:24;;;;;;;8.25;6.67;;;;;;;-0.19;88.60;99100.41;1649495;85;22127;-59
2021/12/08 01:51:51;;;;;;;7.60;6.92;;;;;;;-0.18;88.66;99103.88;1664753;85;21445;-60
2021/12/08 01:54:18;;;;;;;7.60;6.87;;;;;;;-0.23;88.61;99097.44;1620624;86;21535;-60
2021/12/08 01:56:46;;;;;;;;;;;;;;;-0.28;88.70;99092.32;1634728;86;21591;-59
2021/12/08 01:59:13;;;;;;;7.40;6.62;;;;;;;-0.27;88.90;99094.02;1644834;86;20415;-59
2021/12/08 02:01:42;;;;;;;7.75;6.97;;;;;;;-0.26;88.80;99081.98;1610154;87;22179;-59
2021/12/08 02:04:10;;;;;;;7.80;6.67;;;;;;;-0.24;89.14;99080.23;1647867;85;21567;-59
2021/12/08 02:06:40;;;;;;;8.05;7.20;;;;;;;-0.24;89.04;99085.41;1650609;85;21987;-59
2021/12/08 02:09:12;;;;;;;7.92;7.12;;;;;;;-0.29;89.18;99083.28;1648184;85;21559;-59
2021/12/08 02:11:39;;;;;;;7.10;6.47;;;;;;;-0.27;89.22;99080.25;1648124;85;21626;-60
2021/12/08 02:14:06;;;;;;;8.08;7.28;;;;;;;-0.15;89.53;99082.75;1643632;85;21766;-60
2021/12/08 02:16:33;;;;;;;8.50;7.60;;;;;;;-0.15;89.10;99080.58;1648361;85;21480;-60
2021/12/08 02:19:00;;;;;;;8.50;7.40;;;;;;;-0.25;89.59;99084.52;1657243;85;21477;-59
2021/12/08 02:21:31;;;;;;;8.57;7.73;;;;;;;-0.26;89.53;99085.85;1656698;85;21517;-59
2021/12/08 02:24:01;;;;;;;7.55;6.75;;;;;;;-0.18;89.63;99080.17;1654476;85;21520;-60
2021/12/08 02:26:29;;;;;;;7.87;6.85;;;;;;;-0.07;89.29;99081.39;1651543;85;21755;-60
2021/12/08 02:28:57;;;;;;;8.40;7.60;;;;;;;-0.08;89.29;99079.22;1647390;85;21512;-60
2021/12/08 02:31:37;;;;;;;;;;;;;;;-0.11;89.44;99087.45;1658881;85;21619;-60
2021/12/08 02:50:11;;;;;;;8.93;7.33;;;;;;;-0.10;89.33;99066.74;1644760;85;21611;-59
2021/12/08 02:52:38;;;;;;;12.18;7.37;;;;;;;-0.11;89.19;99071.51;1656050;85;21806;-60
2021/12/08 02:55:07;;;;;;;8.60;6.67;;;;;;;-0.15;89.55;99074.11;1655518;85;21529;-60
2021/12/08 02:57:34;;;;;;;7.50;6.65;;;;;;;-0.17;89.45;99070.28;1649367;85;21061;-59
2021/12/08 03:00:04;;;;;;;9.53;7.90;;;;;;;-0.13;90.08;99075.84;1643998;85;21580;-60
2021/12/08 03:02:31;;;;;;;8.35;7.53;;;;;;;-0.10;89.71;99074.50;1647077;85;21501;-61
2021/12/08 03:04:58;;;;;;;9.33;7.47;;;;;;;-0.10;89.67;99072.36;1654676;85;22117;-59
2021/12/08 03:07:25;;;;;;;8.30;7.42;;;;;;;-0.15;89.81;99072.83;1649990;85;25707;-59
2021/12/08 03:09:52;;;;;;;8.08;7.22;;;;;;;-0.11;89.88;99076.67;1642920;85;20948;-59
2021/12/08 03:12:28;;;;;;;8.80;7.03;;;;;;;-0.04;89.44;99062.84;1650426;85;21481;-60
2021/12/08 03:14:55;;;;;;;8.23;7.35;;;;;;;-0.01;89.71;99067.11;1659444;85;21476;-60
2021/12/08 03:17:22;;;;;;;9.18;6.92;;;;;;;-0.03;89.42;99074.02;1666801;85;21779;-60
2021/12/08 03:19:51;;;;;;;7.97;7.17;;;;;;;-0.09;89.59;99081.39;1652750;85;21496;-60
2021/12/08 03:22:18;;;;;;;8.78;6.83;;;;;;;-0.07;89.46;99078.36;1651009;85;21106;-60
2021/12/08 03:24:47;;;;;;;7.75;7.03;;;;;;;-0.02;89.34;99074.02;1654491;85;21545;-60
2021/12/08 03:27:18;;;;;;;8.53;7.47;;;;;;;-0.03;89.21;99075.31;1647015;85;21128;-59
2021/12/08 03:30:11;;;;;;;8.45;7.28;;;;;;;-0.05;89.32;99074.47;1657923;85;21806;-60
2021/12/08 03:32:36;;;;;;;10.28;7.65;;;;;;;-0.11;89.39;99070.22;1644910;85;21449;-61
2021/12/08 03:34:57;;;;;;;8.18;6.53;;;;;;;-0.13;89.30;99064.62;1651029;85;21484;-61
2021/12/08 03:37:28;;;;;;;7.83;6.95;;;;;;;-0.04;89.42;99065.42;1646353;85;21455;-62
2021/12/08 03:39:56;;;;;;;8.28;6.97;;;;;;;-0.04;89.11;99053.79;1658951;85;21496;-61
2021/12/08 03:42:26;;;;;;;8.20;7.40;;;;;;;-0.12;89.14;99057.30;1645600;85;21443;-61
2021/12/08 03:44:55;;;;;;;8.08;7.28;;;;;;;-0.19;89.53;99061.66;1658639;85;21444;-58
2021/12/08 03:47:27;;;;;;;8.88;7.47;;;;;;;-0.14;89.26;99057.75;1642714;86;21575;-58
2021/12/08 03:49:51;;;;;;;7.70;6.60;;;;;;;-0.09;89.14;99051.67;1630695;85;21546;-58
2021/12/08 03:52:18;;;;;;;9.13;7.58;;;;;;;-0.09;89.26;99045.66;1620764;86;21598;-58
2021/12/08 03:54:45;;;;;;;9.68;7.80;;;;;;;-0.15;89.21;99056.91;1634481;86;21680;-58
2021/12/08 03:57:12;;;;;;;9.70;7.55;;;;;;;-0.20;89.41;99061.25;1638638;86;21673;-58
2021/12/08 03:59:39;;;;;;;8.05;6.72;;;;;;;-0.17;89.59;99062.94;1651262;85;21495;-58
2021/12/08 04:02:06;;;;;;;10.38;7.35;;;;;;;-0.08;89.66;99047.35;1648314;85;21604;-58
2021/12/08 04:04:42;;;;;;;10.82;7.72;;;;;;;0.01;89.37;99047.72;1661417;84;21488;-58
2021/12/08 04:07:11;;;;;;;8.80;7.08;;;;;;;-0.04;89.09;99055.49;1654106;85;22130;-59
2021/12/08 04:09:43;;;;;;;10.00;7.67;;;;;;;-0.18;89.82;99050.46;1633720;86;21074;-59
2021/12/08 04:12:14;;;;;;;7.12;6.35;;;;;;;-0.16;90.40;99060.34;1625529;86;21536;-60
2021/12/08 04:14:56;;;;;;;8.78;6.53;;;;;;;-0.07;90.11;99058.13;1621534;86;21028;-60
2021/12/08 04:17:33;;;;;;;8.43;6.58;;;;;;;-0.01;89.48;99059.36;1665706;85;21561;-60
2021/12/08 04:20:02;;;;;;;;;;;;;;;-0.10;89.37;99050.39;1626099;86;22028;-60
2021/12/08 04:22:36;;;;;;;7.28;6.17;;;;;;;-0.21;89.71;99052.65;1627128;86;20432;-59
2021/12/08 04:25:08;;;;;;;6.58;5.85;;;;;;;-0.15;90.01;99053.03;1622745;86;21484;-58
2021/12/08 04:27:36;;;;;;;7.62;6.75;;;;;;;-0.02;89.95;99055.04;1648476;85;21150;-59
2021/12/08 04:30:08;;;;;;;7.20;6.40;;;;;;;-0.01;89.55;99064.08;1651480;84;21480;-59
2021/12/08 04:32:36;;;;;;;6.72;6.03;;;;;;;-0.08;89.24;99057.25;1618258;87;22004;-59
2021/12/08 04:35:04;;;;;;;6.08;5.30;;;;;;;-0.14;89.53;99053.44;1609605;87;21453;-59
2021/12/08 04:37:35;;;;;;;6.97;6.08;;;;;;;-0.08;89.43;99055.95;1602045;87;21527;-59
2021/12/08 04:40:22;;;;;;;6.85;6.10;;;;;;;-0.03;89.48;99061.95;1609233;87;21479;-59
2021/12/08 04:45:29;;;;;;;5.72;5.05;;;;;;;-0.09;89.59;99050.83;1611850;87;21819;-58
2021/12/08 04:51:13;;;;;;;6.25;5.70;;;;;;;-0.01;89.47;99067.95;1609607;87;21478;-59
2021/12/08 04:53:39;;;;;;;5.80;5.25;;;;;;;0.02;89.33;99066.21;1614502;87;21510;-59
2021/12/08 05:07:46;;;;;;;6.87;6.17;;;;;;;0.11;89.34;99071.30;1608446;87;21724;-59
2021/12/08 05:09:25;;;;;;;6.97;5.30;;;;;;;0.08;89.10;99083.83;1585476;87;21628;-60
2021/12/08 05:12:05;;;;;;;5.47;4.97;;;;;;;0.03;88.97;99090.76;1620100;87;22169;-60
2021/12/08 05:14:46;;;;;;;6.20;5.60;;;;;;;0.09;89.00;99089.41;1595838;87;21455;-60
2021/12/08 05:17:36;;;;;;;6.80;5.62;;;;;;;0.15;89.03;99085.49;1615586;87;21040;-59
2021/12/08 05:20:08;;;;;;;6.10;5.50;;;;;;;0.15;89.08;99082.02;1613133;86;21477;-59
2021/12/08 05:22:40;;;;;;;6.67;5.30;;;;;;;0.20;88.86;99078.97;1607253;87;21483;-60
2021/12/08 05:25:10;;;;;;;6.62;6.00;;;;;;;0.19;88.89;99079.86;1612690;87;21826;-60
2021/12/08 05:27:44;;;;;;;8.85;7.92;;;;;;;0.23;88.59;99078.06;1616331;87;21468;-59
2021/12/08 05:30:21;;;;;;;7.15;6.45;;;;;;;0.21;88.57;99082.40;1597476;87;21034;-59
2021/12/08 05:32:50;;;;;;;8.15;5.92;;;;;;;0.13;88.67;99080.77;1577410;88;21578;-59
2021/12/08 05:35:18;;;;;;;5.75;5.10;;;;;;;0.10;88.34;99085.95;1579375;89;21542;-63
2021/12/08 05:37:45;;;;;;;;;;;;;;;0.08;88.65;99082.98;1640858;86;21814;-58
2021/12/08 05:40:17;;;;;;;5.90;5.13;;;;;;;0.18;88.37;99085.89;1637201;86;20493;-59
2021/12/08 05:42:45;;;;;;;6.03;5.42;;;;;;;0.20;88.48;99082.84;1633197;85;21096;-58
2021/12/08 05:45:15;;;;;;;5.62;5.10;;;;;;;0.18;88.50;99080.72;1638956;85;21601;-58
2021/12/08 05:47:42;;;;;;;4.72;4.33;;;;;;;0.14;88.36;99083.77;1644347;86;21466;-58
2021/12/08 05:50:10;;;;;;;5.97;5.00;;;;;;;0.13;88.20;99083.36;1646814;85;26961;-58
2021/12/08 05:52:37;;;;;;;6.40;5.20;;;;;;;0.18;88.12;99082.01;1641378;86;21522;-58
2021/12/08 05:55:05;;;;;;;5.40;4.90;;;;;;;0.21;87.92;99074.64;1643734;85;21584;-58
2021/12/08 05:57:37;;;;;;;5.67;5.10;;;;;;;-0.35;87.97;99000.67;1635726;86;21070;-60
2021/12/08 06:00:18;;;;;;;5.40;4.90;;;;;;;0.06;88.10;99079.52;1638923;86;21556;-59
2021/12/08 06:02:46;;;;;;;5.53;4.83;;;;;;;0.03;88.60;99080.42;1642806;86;21631;-59
2021/12/08 06:05:13;;;;;;;5.65;5.05;;;;;;;0.12;88.29;99075.61;1639598;85;21024;-60
2021/12/08 06:07:42;;;;;;;5.47;4.97;;;;;;;0.13;88.35;99074.72;1635255;86;21474;-60
2021/12/08 06:10:15;;;;;;;5.53;4.85;;;;;;;0.09;88.31;99082.09;1646061;85;20966;-60
2021/12/08 06:12:42;;;;;;;4.65;4.25;;;;;;;0.05;88.45;99086.87;1609213;86;21487;-60
2021/12/08 06:15:09;;;;;;;4.58;4.17;;;;;;;0.08;88.43;99082.98;1589468;88;21832;-60
2021/12/08 06:17:36;;;;;;;4.72;4.33;;;;;;;0.13;88.19;99077.30;1650851;85;28571;-60
2021/12/08 06:20:06;;;;;;;5.00;4.60;;;;;;;0.14;88.37;99077.74;1636196;85;21573;-60
2021/12/08 06:22:34;;;;;;;5.60;4.72;;;;;;;0.15;88.25;99084.20;1634075;85;21569;-59
2021/12/08 06:25:03;;;;;;;5.20;4.65;;;;;;;0.13;88.52;99079.89;1643384;85;20969;-59
2021/12/08 06:27:30;;;;;;;5.15;4.17;;;;;;;0.16;88.31;99081.17;1633225;86;21752;-60
2021/12/08 06:29:57;;;;;;;6.30;4.50;;;;;;;0.25;88.12;99077.20;1632891;85;21067;-59
2021/12/08 06:32:24;;;;;;;5.10;4.58;;;;;;;0.27;87.83;99072.87;1638781;85;21566;-59
2021/12/08 06:34:55;;;;;;;4.92;4.33;;;;;;;0.26;87.84;99078.05;1631551;85;20973;-59
2021/12/08 06:37:30;;;;;;;5.20;4.50;;;;;;;0.21;88.01;99066.89;1627863;85;21427;-60
2021/12/08 06:40:11;;;;;;;5.28;4.62;;;;;;;0.20;87.86;99066.04;1636903;85;21784;-60
2021/12/08 06:42:41;;;;;;;4.83;4.33;;;;;;;0.30;87.73;99066.80;1625618;85;21639;-59
2021/12/08 06:45:13;;;;;;;4.97;4.47;;;;;;;0.29;87.79;99072.86;1636038;85;21609;-59
2021/12/08 06:47:41;;;;;;;5.03;4.45;;;;;;;0.25;88.14;99068.16;1639344;85;21608;-57
2021/12/08 06:50:14;;;;;;;4.67;4.28;;;;;;;0.23;88.03;99069.90;1634154;85;21067;-58
2021/12/08 06:52:41;;;;;;;4.60;4.03;;;;;;;0.27;88.14;99075.90;1642956;85;22321;-58
2021/12/08 06:55:14;;;;;;;4.97;4.53;;;;;;;0.37;87.87;99073.63;1639982;85;21576;-55
2021/12/08 06:57:49;;;;;;;5.40;4.78;;;;;;;0.34;87.77;99069.35;1631744;85;21489;-57
2021/12/08 07:00:23;;;;;;;5.87;4.10;;;;;;;0.29;88.04;99072.41;1634091;85;21603;-57
2021/12/08 07:03:03;;;;;;;4.95;4.45;;;;;;;0.25;87.79;99068.59;1649758;85;21019;-56
2021/12/08 07:05:31;;;;;;;4.25;3.85;;;;;;;0.25;87.79;99075.06;1638275;85;21863;-55
2021/12/08 07:08:05;;;;;;;4.22;3.83;;;;;;;0.35;87.88;99076.22;1634520;85;21912;-57
2021/12/08 07:10:38;;;;;;;5.42;4.72;;;;;;;0.36;87.54;99080.53;1637057;85;21016;-57
2021/12/08 07:13:13;;;;;;;4.95;4.08;;;;;;;0.32;87.53;99078.86;1640737;85;21649;-56
2021/12/08 07:15:48;;;;;;;5.62;4.17;;;;;;;0.25;87.84;99079.78;1582527;88;21824;-57
2021/12/08 07:18:25;;;;;;;3.90;3.47;;;;;;;0.27;88.03;99083.21;1634675;85;21794;-56
2021/12/08 07:20:57;;;;;;;3.75;3.37;;;;;;;0.37;88.22;99083.97;1638329;85;21549;-56
2021/12/08 07:23:36;;;;;;;4.40;3.83;;;;;;;0.44;87.80;99075.72;1636407;85;21631;-56
2021/12/08 07:26:14;;;;;;;5.22;4.08;;;;;;;0.41;87.98;99086.09;1635829;85;21548;-56
2021/12/08 07:28:41;;;;;;;4.67;3.95;;;;;;;0.34;87.90;99087.86;1633855;85;21071;-55
2021/12/08 07:31:20;;;;;;;;;;;;;;;0.34;88.18;99085.28;1640608;85;21796;-56
2021/12/08 07:33:48;;;;;;;4.62;3.60;;;;;;;0.42;88.16;99085.23;1638345;85;20242;-56
2021/12/08 07:36:17;;;;;;;3.72;3.40;;;;;;;0.44;87.99;99077.02;1637501;85;28800;-57
2021/12/08 07:38:47;;;;;;;3.98;3.58;;;;;;;0.42;88.07;99069.71;1636691;85;21631;-59
2021/12/08 07:41:19;;;;;;;3.37;3.08;;;;;;;0.37;87.90;99068.45;1638908;85;21617;-56
2021/12/08 07:43:51;;;;;;;3.30;3.00;;;;;;;0.39;87.92;99066.25;1640490;85;21338;-56
2021/12/08 07:46:23;;;;;;;2.90;2.70;;;;;;;0.50;87.78;99073.06;1636506;85;21649;-56
2021/12/08 07:49:02;;;;;;;3.75;3.45;;;;;;;0.54;87.54;99065.67;1640716;85;21519;-57
2021/12/08 07:51:40;;;;;;;5.60;3.33;;;;;;;0.47;87.49;99066.61;1589712;88;21599;-56
2021/12/08 07:54:08;;;;;;;3.05;2.75;;;;;;;0.47;87.81;99066.61;1587501;88;21088;-56
2021/12/08 07:56:36;;;;;;;7.15;3.40;;;;;;;0.48;87.41;99063.17;1584684;88;21797;-58
2021/12/08 07:59:05;;;;;;;3.00;2.75;;;;;;;0.54;87.47;99061.80;1637399;85;21519;-58
2021/12/08 08:01:35;;;;;;;3.70;3.40;;;;;;;0.60;87.62;99058.28;1653847;85;21544;-57
2021/12/08 08:04:05;;;;;;;2.90;2.70;;;;;;;0.55;87.37;99057.05;1624230;85;21643;-58
2021/12/08 08:06:36;;;;;;;2.92;2.70;;;;;;;0.45;87.16;99065.78;1624644;85;21455;-58
2021/12/08 08:09:06;;;;;;;3.50;3.20;;;;;;;0.42;87.39;99060.66;1631778;85;21799;-56
2021/12/08 08:11:40;;;;;;;2.72;2.52;;;;;;;0.51;87.68;99051.47;1632916;85;21421;-57
2021/12/08 08:14:09;;;;;;;2.87;2.67;;;;;;;0.54;87.62;99043.24;1582626;88;21084;-59
2021/12/08 08:16:37;;;;;;;3.27;3.05;;;;;;;0.51;87.61;99042.00;1588285;88;21589;-56
2021/12/08 08:19:12;;;;;;;2.72;2.52;;;;;;;0.44;87.86;99036.48;1594249;88;21134;-57
2021/12/08 08:21:45;;;;;;;6.37;2.67;;;;;;;0.49;88.07;99035.12;1605885;86;21571;-57
2021/12/08 08:24:12;;;;;;;3.15;2.83;;;;;;;0.55;87.81;99035.91;1629052;85;21609;-57
2021/12/08 08:26:41;;;;;;;3.45;3.15;;;;;;;0.63;87.38;99036.27;1627401;85;21462;-57
2021/12/08 08:29:08;;;;;;;;;;;;;;;0.55;87.60;99033.77;1636494;85;21532;-57
2021/12/08 08:31:43;;;;;;;3.90;3.50;;;;;;;0.47;87.51;99038.16;1656675;85;20498;-58
2021/12/08 08:34:10;;;;;;;4.10;3.50;;;;;;;0.41;87.71;99038.23;1650708;85;21812;-57
2021/12/08 08:36:42;;;;;;;4.10;3.70;;;;;;;0.49;87.62;99042.46;1643795;85;21502;-56
2021/12/08 08:39:17;;;;;;;3.22;2.92;;;;;;;0.57;87.50;99041.92;1653965;84;21509;-58
2021/12/08 08:41:52;;;;;;;3.35;2.95;;;;;;;0.66;86.96;99049.14;1648239;85;21461;-58
2021/12/08 08:44:27;;;;;;;2.83;2.40;;;;;;;0.56;87.12;99053.58;1653330;85;21550;-57
2021/12/08 08:46:55;;;;;;;3.50;2.77;;;;;;;0.49;87.34;99054.52;1644350;85;21841;-57
2021/12/08 08:49:24;;;;;;;;;;;;;;;0.49;87.51;99054.52;1660016;85;21641;-57
2021/12/08 08:52:02;;;;;;;2.52;2.33;;;;;;;0.58;87.14;99059.17;1660943;84;20533;-58
2021/12/08 08:54:37;;;;;;;3.33;2.55;;;;;;;0.62;86.84;99050.91;1592854;88;21472;-58
2021/12/08 08:57:18;;;;;;;2.65;2.45;;;;;;;0.53;86.74;99052.34;1649191;85;21073;-57
2021/12/08 08:59:50;;;;;;;5.03;2.52;;;;;;;0.46;86.72;99046.81;1654770;85;21684;-57
2021/12/08 09:02:22;;;;;;;2.90;2.60;;;;;;;0.39;87.01;99040.84;1653320;85;21124;-57
2021/12/08 09:04:54;;;;;;;4.75;2.80;;;;;;;0.47;87.22;99039.45;1641026;85;21504;-58
2021/12/08 09:07:29;;;;;;;3.12;2.75;;;;;;;0.51;87.07;99036.83;1650652;85;21515;-58
2021/12/08 09:09:57;;;;;;;3.85;3.15;;;;;;;0.50;86.97;99032.97;1649728;85;21039;-58
2021/12/08 09:12:44;;;;;;;3.42;2.72;;;;;;;0.45;87.43;99038.17;1665078;85;22114;-57
2021/12/08 09:15:16;;;;;;;3.33;3.02;;;;;;;0.48;87.27;99038.15;1657087;85;21664;-58
2021/12/08 09:17:51;;;;;;;3.12;2.77;;;;;;;0.56;87.29;99029.84;1652691;85;20966;-58
2021/12/08 09:20:26;;;;;;;3.00;2.70;;;;;;;0.63;86.97;99042.73;1637895;85;21544;-59
2021/12/08 09:23:05;;;;;;;3.42;2.98;;;;;;;0.57;86.79;99039.78;1657684;85;21571;-58
2021/12/08 09:25:37;;;;;;;3.08;2.67;;;;;;;0.50;86.96;99040.28;1656160;85;21573;-59
2021/12/08 09:28:30;;;;;;;2.47;2.27;;;;;;;0.44;87.83;99042.95;1659222;85;21039;-59
2021/12/08 09:31:04;;;;;;;2.80;2.55;;;;;;;0.54;87.51;99045.83;1648197;85;21576;-59
2021/12/08 09:33:39;;;;;;;3.30;2.50;;;;;;;0.60;86.87;99046.64;1664915;84;21471;-58
2021/12/08 09:36:10;;;;;;;3.62;3.17;;;;;;;0.49;86.76;99033.82;1655468;84;21559;-59
2021/12/08 09:38:45;;;;;;;3.40;2.98;;;;;;;0.39;87.32;99031.78;1655030;85;21819;-59
2021/12/08 09:41:19;;;;;;;2.83;2.55;;;;;;;0.40;87.36;99032.22;1657060;85;21527;-59
2021/12/08 09:43:51;;;;;;;3.98;2.62;;;;;;;0.52;87.25;99027.33;1649312;85;21539;-58
2021/12/08 09:46:26;;;;;;;3.20;2.62;;;;;;;0.62;87.15;99021.60;1653657;85;21515;-58
2021/12/08 09:48:53;;;;;;;2.45;2.25;;;;;;;0.63;87.10;99019.45;1654495;85;21697;-57
2021/12/08 09:51:23;;;;;;;2.80;2.50;;;;;;;0.55;86.91;99021.69;1652795;85;21709;-57
2021/12/08 09:53:51;;;;;;;3.50;2.35;;;;;;;0.50;87.05;99023.91;1654734;85;21723;-58
2021/12/08 09:56:19;;;;;;;3.55;2.83;;;;;;;0.50;86.99;99022.62;1658466;85;21018;-58
2021/12/08 09:58:46;;;;;;;3.55;3.20;;;;;;;0.54;87.02;99019.95;1660481;85;21588;-58
2021/12/08 10:01:17;;;;;;;3.40;3.10;;;;;;;0.53;86.97;99026.02;1648070;85;21558;-58
2021/12/08 10:03:43;;;;;;;3.15;2.85;;;;;;;0.45;87.07;99016.19;1652833;85;21807;-57
2021/12/08 10:06:10;;;;;;;3.15;2.83;;;;;;;0.42;87.50;99016.24;1659800;85;21445;-57
2021/12/08 10:08:37;;;;;;;3.37;2.87;;;;;;;0.46;87.35;99015.77;1651207;85;21019;-58
2021/12/08 10:11:05;;;;;;;4.17;3.10;;;;;;;0.50;87.09;99011.82;1663146;85;21582;-57
2021/12/08 10:13:32;;;;;;;3.55;2.85;;;;;;;0.55;87.14;99008.75;1644492;85;21443;-59
2021/12/08 10:16:00;;;;;;;3.65;3.35;;;;;;;0.50;87.05;99013.56;1649762;85;21950;-58
2021/12/08 10:18:27;;;;;;;3.42;3.08;;;;;;;0.44;87.31;99011.91;1655906;85;21082;-57
2021/12/08 10:20:55;;;;;;;3.55;3.22;;;;;;;0.46;87.38;99011.89;1650600;84;21634;-61
2021/12/08 10:23:36;;;;;;;3.30;3.00;;;;;;;0.49;87.15;99005.37;1652948;85;21714;-58
2021/12/08 10:26:17;;;;;;;3.20;2.90;;;;;;;0.54;87.24;98997.13;1652643;85;21506;-58
2021/12/08 10:28:50;;;;;;;3.35;3.05;;;;;;;0.56;87.42;98994.08;1648139;85;22125;-59
2021/12/08 10:31:31;;;;;;;3.98;3.00;;;;;;;0.57;87.36;98992.77;1661742;85;21132;-57
2021/12/08 10:34:21;;;;;;;3.27;2.98;;;;;;;0.54;86.97;98990.66;1657764;85;21026;-57
2021/12/08 10:36:55;;;;;;;3.45;3.15;;;;;;;0.54;86.91;98985.48;1655992;85;21095;-58
2021/12/08 10:39:38;;;;;;;4.20;3.33;;;;;;;0.62;86.85;98991.41;1648557;85;21507;-58
2021/12/08 10:42:22;;;;;;;3.85;3.47;;;;;;;0.60;86.87;98990.56;1649649;85;21958;-57
2021/12/08 10:45:10;;;;;;;4.00;3.60;;;;;;;0.53;86.82;98989.81;1659739;85;21542;-56
2021/12/08 10:47:46;;;;;;;4.47;3.40;;;;;;;0.53;86.99;98994.13;1657472;85;21510;-58
2021/12/08 10:56:12;;;;;;;4.62;3.42;;;;;;;0.66;86.52;98977.58;1667318;85;21430;-59
2021/12/08 10:58:43;;;;;;;4.62;3.65;;;;;;;0.56;86.52;98978.55;1665862;85;21009;-58
2021/12/08 11:01:20;;;;;;;5.40;3.35;;;;;;;0.56;86.79;98972.09;1654093;85;21515;-56
2021/12/08 11:03:48;;;;;;;5.10;3.98;;;;;;;0.63;86.76;98968.99;1660379;85;21543;-56
2021/12/08 11:06:17;;;;;;;4.72;3.85;;;;;;;0.65;86.91;98968.09;1670966;85;21749;-59
2021/12/08 11:08:48;;;;;;;4.45;3.90;;;;;;;0.62;86.75;98965.53;1657641;85;21813;-59
2021/12/08 11:11:24;;;;;;;4.17;3.52;;;;;;;0.55;86.97;98963.92;1628882;85;21602;-59
2021/12/08 11:13:54;;;;;;;3.75;3.35;;;;;;;0.50;87.00;98955.36;1613694;87;21442;-58
2021/12/08 11:16:34;;;;;;;5.35;3.95;;;;;;;0.61;87.16;98957.81;1594590;87;21589;-60
2021/12/08 11:19:21;;;;;;;5.03;4.03;;;;;;;0.65;87.26;98962.06;1619335;87;21124;-60
2021/12/08 11:21:54;;;;;;;4.47;4.05;;;;;;;0.61;87.11;98969.45;1601602;87;21804;-60
2021/12/08 11:24:35;;;;;;;5.42;4.05;;;;;;;0.52;87.20;98965.25;1631195;86;21525;-62
2021/12/08 11:27:06;;;;;;;5.62;4.35;;;;;;;0.51;87.50;98949.30;1625959;86;21626;-60
2021/12/08 11:29:40;;;;;;;6.45;4.80;;;;;;;0.61;87.41;98950.90;1652439;85;21562;-60
2021/12/08 11:32:09;;;;;;;6.22;4.55;;;;;;;0.65;87.11;98944.80;1652685;85;20970;-58
2021/12/08 11:34:40;;;;;;;6.72;4.60;;;;;;;0.60;87.24;98940.56;1655646;85;21790;-60
2021/12/08 11:37:13;;;;;;;6.72;5.03;;;;;;;0.52;87.45;98938.08;1653005;85;21423;-57
2021/12/08 11:39:48;;;;;;;4.87;4.28;;;;;;;0.55;87.60;98935.47;1622578;86;21471;-57
2021/12/08 11:42:18;;;;;;;6.58;4.75;;;;;;;0.59;87.70;98938.42;1588815;88;21664;-57
2021/12/08 11:44:52;;;;;;;6.53;5.00;;;;;;;0.57;87.70;98924.21;1592223;87;21633;-58
2021/12/08 11:47:23;;;;;;;5.42;4.85;;;;;;;0.49;88.28;98926.47;1589778;88;21906;-57
2021/12/08 11:49:53;;;;;;;6.05;4.70;;;;;;;0.43;87.80;98922.69;1639843;85;21454;-57
2021/12/08 11:52:23;;;;;;;6.58;4.75;;;;;;;0.42;88.36;98913.23;1641835;85;21499;-57
2021/12/08 11:55:07;;;;;;;5.85;4.75;;;;;;;0.45;88.22;98909.29;1643668;85;21468;-57
2021/12/08 11:57:39;;;;;;;7.75;5.08;;;;;;;0.40;87.88;98909.37;1641026;85;21537;-57
2021/12/08 12:00:22;;;;;;;6.15;4.53;;;;;;;0.25;88.68;98901.81;1650169;85;22119;-57
2021/12/08 12:02:57;;;;;;;5.85;4.47;;;;;;;0.24;88.78;98916.90;1637869;85;21430;-57
2021/12/08 12:05:40;;;;;;;5.87;4.65;;;;;;;0.29;91.33;98907.36;1632198;85;21018;-57
2021/12/08 12:08:11;;;;;;;6.83;5.17;;;;;;;0.33;89.39;98909.88;1582702;88;21042;-57
2021/12/08 12:10:49;;;;;;;7.67;4.67;;;;;;;0.30;89.33;98906.05;1641225;85;21546;-57
2021/12/08 12:13:16;;;;;;;5.78;4.80;;;;;;;0.27;89.42;98915.58;1637107;85;23481;-58
2021/12/08 12:15:49;;;;;;;6.40;5.20;;;;;;;0.30;89.33;98924.57;1643410;85;21535;-57
2021/12/08 12:18:21;;;;;;;7.05;5.40;;;;;;;0.38;89.13;98913.27;1656740;84;21059;-57
2021/12/08 12:20:52;;;;;;;5.78;4.92;;;;;;;0.17;89.15;98882.08;1635044;85;21555;-58
2021/12/08 12:24:04;;;;;;;6.05;4.92;;;;;;;0.31;89.19;98911.63;1643734;85;21513;-57
2021/12/08 12:26:59;;;;;;;6.28;5.22;;;;;;;0.27;89.21;98916.88;1636486;85;22122;-58
2021/12/08 12:29:56;;;;;;;7.28;5.30;;;;;;;0.32;89.94;98934.04;1657565;85;21559;-57
2021/12/08 12:32:36;;;;;;;10.05;4.83;;;;;;;0.34;91.75;98934.87;1626421;86;21547;-57
2021/12/08 12:35:14;;;;;;;7.70;5.35;;;;;;;0.32;89.56;98944.80;1630278;85;21520;-57
2021/12/08 12:37:40;;;;;;;;;;;;;;;0.26;89.39;98944.44;1646402;85;21435;-61
2021/12/08 12:40:14;;;;;;;5.83;4.70;;;;;;;0.28;89.43;98941.39;1652459;85;21827;-57
2021/12/08 12:42:56;;;;;;;7.30;4.75;;;;;;;0.33;89.45;98942.20;1641239;85;21046;-58
2021/12/08 12:45:25;;;;;;;6.92;5.55;;;;;;;0.24;89.62;98928.09;1642088;85;21597;-59
2021/12/08 12:48:19;;;;;;;8.60;6.33;;;;;;;0.31;89.96;98956.03;1641501;85;21582;-58